createdAt,value
2019-03-24T00:01:28.546Z,10.98
2019-03-24T00:04:05.821Z,10.29
2019-03-24T00:06:36.522Z,10.52
2019-03-24T00:09:09.099Z,10.35
2019-03-24T00:11:40.280Z,11.11
2019-03-24T00:14:10.996Z,11.02
2019-03-24T00:16:42.080Z,10.87
2019-03-24T00:19:13.454Z,10.71
2019-03-24T00:21:44.143Z,11.23
2019-03-24T00:24:14.966Z,10.69
2019-03-24T00:26:46.783Z,10.55
2019-03-24T00:29:17.788Z,10.54
2019-03-24T00:31:48.801Z,10.32
2019-03-24T00:34:19.550Z,10.71
2019-03-24T00:36:50.889Z,10.66
2019-03-24T00:39:21.825Z,10.88
2019-03-24T00:41:52.637Z,11.16
2019-03-24T00:44:27.755Z,11.03
2019-03-24T00:46:58.925Z,10.90
2019-03-24T00:49:29.719Z,10.80
2019-03-24T00:52:01.101Z,11.07
2019-03-24T00:54:31.953Z,10.70
2019-03-24T00:57:02.962Z,11.28
2019-03-24T00:59:33.827Z,10.94
2019-03-24T01:02:04.695Z,10.79
2019-03-24T01:04:35.544Z,11.14
2019-03-24T01:07:06.542Z,11.01
2019-03-24T01:09:37.659Z,11.12
2019-03-24T01:12:11.440Z,11.01
2019-03-24T01:14:42.149Z,10.21
2019-03-24T01:17:12.964Z,10.25
2019-03-24T01:19:43.731Z,10.41
2019-03-24T01:22:14.662Z,10.24
2019-03-24T01:24:45.707Z,10.22
2019-03-24T01:27:16.380Z,10.28
2019-03-24T01:29:47.141Z,10.28
2019-03-24T01:32:18.123Z,10.08
2019-03-24T01:34:48.830Z,10.19
2019-03-24T01:37:19.520Z,10.54
2019-03-24T01:39:50.585Z,10.07
2019-03-24T01:42:21.723Z,9.87
2019-03-24T01:44:52.742Z,10.04
2019-03-24T01:47:23.438Z,10.17
2019-03-24T01:49:54.710Z,10.47
2019-03-24T01:52:25.540Z,9.83
2019-03-24T01:54:56.258Z,9.74
2019-03-24T01:57:26.951Z,9.97
2019-03-24T01:59:57.707Z,10.23
2019-03-24T02:02:28.508Z,10.22
2019-03-24T02:04:59.450Z,10.10
2019-03-24T02:07:30.183Z,10.33
2019-03-24T02:10:01.193Z,10.33
2019-03-24T02:12:32.077Z,10.21
2019-03-24T02:15:02.882Z,9.99
2019-03-24T02:17:33.573Z,10.29
2019-03-24T02:20:04.985Z,10.22
2019-03-24T02:22:36.456Z,10.14
2019-03-24T02:25:07.676Z,9.85
2019-03-24T02:27:38.423Z,9.90
2019-03-24T02:30:10.442Z,9.75
2019-03-24T02:32:41.392Z,9.77
2019-03-24T02:35:12.369Z,9.32
2019-03-24T02:37:43.102Z,9.38
2019-03-24T02:40:13.981Z,9.56
2019-03-24T02:42:45.153Z,9.19
2019-03-24T02:45:16.508Z,9.22
2019-03-24T02:47:47.311Z,8.80
2019-03-24T02:50:18.416Z,9.57
2019-03-24T02:52:49.540Z,9.28
2019-03-24T02:55:20.350Z,9.74
2019-03-24T02:57:51.188Z,9.80
2019-03-24T03:00:22.059Z,9.92
2019-03-24T03:02:52.955Z,9.53
2019-03-24T03:05:23.682Z,9.76
2019-03-24T03:07:54.351Z,9.45
2019-03-24T03:10:25.139Z,9.45
2019-03-24T03:12:55.849Z,9.56
2019-03-24T03:15:26.783Z,9.20
2019-03-24T03:17:57.531Z,9.04
2019-03-24T03:20:28.203Z,9.02
2019-03-24T03:22:58.851Z,9.09
2019-03-24T03:25:29.584Z,9.30
2019-03-24T03:28:00.295Z,9.59
2019-03-24T03:30:30.983Z,9.19
2019-03-24T03:33:01.703Z,9.31
2019-03-24T03:35:32.399Z,9.42
2019-03-24T03:38:03.127Z,9.09
2019-03-24T03:40:33.780Z,9.22
2019-03-24T03:43:04.818Z,9.27
2019-03-24T03:45:39.038Z,9.45
2019-03-24T03:48:08.209Z,9.27
2019-03-24T03:50:38.980Z,9.46
2019-03-24T03:53:10.134Z,9.49
2019-03-24T03:55:40.793Z,9.68
2019-03-24T03:58:11.743Z,9.66
2019-03-24T04:00:43.210Z,9.52
2019-03-24T04:03:14.082Z,9.54
2019-03-24T04:05:44.884Z,9.46
2019-03-24T04:08:15.846Z,9.46
2019-03-24T04:10:46.658Z,9.44
2019-03-24T04:13:17.589Z,9.35
2019-03-24T04:15:48.585Z,9.23
2019-03-24T04:18:19.402Z,9.39
2019-03-24T04:20:50.507Z,9.24
2019-03-24T04:23:21.197Z,9.04
2019-03-24T04:25:51.867Z,9.22
2019-03-24T04:28:22.552Z,9.24
2019-03-24T04:30:53.252Z,9.11
2019-03-24T04:33:24.679Z,9.02
2019-03-24T04:35:55.333Z,9.09
2019-03-24T04:38:26.013Z,9.23
2019-03-24T04:40:56.698Z,9.19
2019-03-24T04:43:28.059Z,8.94
2019-03-24T04:45:58.738Z,8.91
2019-03-24T04:48:29.856Z,8.40
2019-03-24T04:51:00.588Z,8.69
2019-03-24T04:53:31.288Z,8.76
2019-03-24T04:56:02.040Z,8.87
2019-03-24T04:58:33.146Z,8.70
2019-03-24T05:01:03.902Z,8.67
2019-03-24T05:03:35.391Z,8.79
2019-03-24T05:06:06.248Z,8.44
2019-03-24T05:08:38.063Z,8.63
2019-03-24T05:11:09.001Z,8.82
2019-03-24T05:13:40.019Z,8.77
2019-03-24T05:16:10.681Z,8.58
2019-03-24T05:18:41.572Z,8.81
2019-03-24T05:21:12.255Z,8.89
2019-03-24T05:23:43.174Z,8.87
2019-03-24T05:26:13.860Z,8.86
2019-03-24T05:28:44.800Z,8.96
2019-03-24T05:31:15.470Z,8.93
2019-03-24T05:33:46.455Z,8.76
2019-03-24T05:36:17.127Z,8.91
2019-03-24T05:38:47.836Z,9.11
2019-03-24T05:41:18.515Z,9.09
2019-03-24T05:43:49.307Z,8.99
2019-03-24T05:46:20.009Z,8.80
2019-03-24T05:48:51.858Z,8.73
2019-03-24T05:51:23.171Z,8.98
2019-03-24T05:53:54.109Z,8.97
2019-03-24T05:56:24.794Z,8.85
2019-03-24T05:58:55.499Z,8.77
2019-03-24T06:01:26.201Z,8.46
2019-03-24T06:03:57.118Z,8.68
2019-03-24T06:06:27.784Z,8.72
2019-03-24T06:08:58.448Z,8.94
2019-03-24T06:11:29.355Z,9.00
2019-03-24T06:14:00.029Z,9.03
2019-03-24T06:16:30.941Z,9.17
2019-03-24T06:19:01.752Z,9.39
2019-03-24T06:21:33.109Z,9.40
2019-03-24T06:24:03.813Z,9.60
2019-03-24T06:26:34.722Z,9.69
2019-03-24T06:29:05.476Z,9.61
2019-03-24T06:31:36.564Z,9.13
2019-03-24T06:34:07.280Z,9.27
2019-03-24T06:36:37.967Z,9.35
2019-03-24T06:39:09.497Z,9.37
2019-03-24T06:41:40.175Z,9.38
2019-03-24T06:44:11.295Z,9.48
2019-03-24T06:46:42.002Z,9.10
2019-03-24T06:49:12.719Z,9.35
2019-03-24T06:51:43.807Z,9.82
2019-03-24T06:54:14.509Z,10.09
2019-03-24T06:56:45.171Z,9.94
2019-03-24T06:59:15.943Z,9.39
2019-03-24T07:01:46.704Z,9.49
2019-03-24T07:04:17.381Z,9.93
2019-03-24T07:06:48.328Z,9.62
2019-03-24T07:09:19.013Z,10.00
2019-03-24T07:11:50.061Z,10.50
2019-03-24T07:14:20.942Z,10.65
2019-03-24T07:16:51.667Z,10.63
2019-03-24T07:19:22.362Z,10.32
2019-03-24T07:21:53.023Z,8.67
2019-03-24T07:24:23.858Z,9.58
2019-03-24T07:26:54.762Z,9.53
2019-03-24T07:29:25.552Z,10.32
2019-03-24T07:31:56.247Z,9.60
2019-03-24T07:34:27.029Z,10.09
2019-03-24T07:36:57.721Z,9.62
2019-03-24T07:39:28.407Z,9.87
2019-03-24T07:41:59.097Z,9.28
2019-03-24T07:44:29.784Z,9.37
2019-03-24T07:47:00.700Z,10.06
2019-03-24T07:49:31.389Z,9.66
2019-03-24T07:52:02.064Z,10.16
2019-03-24T07:54:32.757Z,9.40
2019-03-24T07:57:03.597Z,9.92
2019-03-24T07:59:34.370Z,9.20
2019-03-24T08:02:05.255Z,9.12
2019-03-24T08:04:35.952Z,8.52
2019-03-24T08:07:06.639Z,8.78
2019-03-24T08:09:37.404Z,8.83
2019-03-24T08:12:08.163Z,9.42
2019-03-24T08:14:39.397Z,9.73
2019-03-24T08:17:10.575Z,10.16
2019-03-24T08:19:41.295Z,9.88
2019-03-24T08:22:11.983Z,9.13
2019-03-24T08:24:42.894Z,9.33
2019-03-24T08:27:13.565Z,9.58
2019-03-24T08:29:44.287Z,10.05
2019-03-24T08:32:14.941Z,9.57
2019-03-24T08:34:48.351Z,10.18
2019-03-24T08:37:18.469Z,10.27
2019-03-24T08:39:49.183Z,10.61
2019-03-24T08:42:19.849Z,10.88
2019-03-24T08:44:50.832Z,10.90
2019-03-24T08:47:21.661Z,10.22
2019-03-24T08:49:52.330Z,9.78
2019-03-24T08:52:23.423Z,9.65
2019-03-24T08:54:54.072Z,10.04
2019-03-24T08:57:24.826Z,10.79
2019-03-24T08:59:55.578Z,11.46
2019-03-24T09:02:26.276Z,11.48
2019-03-24T09:04:57.045Z,11.07
2019-03-24T09:07:27.741Z,9.93
2019-03-24T09:10:01.164Z,11.31
2019-03-24T09:12:31.928Z,9.92
2019-03-24T09:15:02.606Z,10.84
2019-03-24T09:17:33.649Z,9.23
2019-03-24T09:20:05.322Z,9.37
2019-03-24T09:22:36.025Z,9.97
2019-03-24T09:25:07.980Z,10.04
2019-03-24T09:27:38.943Z,9.11
2019-03-24T09:30:34.601Z,9.29
2019-03-24T09:33:05.483Z,10.65
2019-03-24T09:35:36.280Z,10.97
2019-03-24T09:38:07.502Z,11.34
2019-03-24T09:40:38.373Z,11.38
2019-03-24T09:43:12.213Z,11.48
2019-03-24T09:45:42.951Z,11.25
2019-03-24T09:48:13.720Z,10.92
2019-03-24T09:50:44.515Z,11.35
2019-03-24T09:53:15.192Z,11.02
2019-03-24T09:55:46.202Z,10.78
2019-03-24T09:58:16.949Z,11.24
2019-03-24T10:00:47.693Z,11.78
2019-03-24T10:03:18.410Z,11.51
2019-03-24T10:05:49.095Z,11.50
2019-03-24T10:08:19.890Z,10.97
2019-03-24T10:10:50.827Z,11.70
2019-03-24T10:13:21.663Z,11.84
2019-03-24T10:15:52.426Z,12.23
2019-03-24T10:18:23.311Z,12.02
2019-03-24T10:20:53.991Z,12.28
2019-03-24T10:23:24.679Z,12.01
2019-03-24T10:25:55.865Z,11.75
2019-03-24T10:28:26.580Z,12.14
2019-03-24T10:30:57.410Z,11.93
2019-03-24T10:33:28.154Z,12.13
2019-03-24T10:35:58.885Z,12.37
2019-03-24T10:38:29.595Z,12.46
2019-03-24T10:41:00.283Z,12.62
2019-03-24T10:43:31.596Z,11.65
2019-03-24T10:46:02.458Z,12.29
2019-03-24T10:48:34.053Z,12.49
2019-03-24T10:51:05.261Z,12.46
2019-03-24T10:53:36.164Z,12.72
2019-03-24T10:56:07.576Z,12.54
2019-03-24T10:58:38.534Z,12.80
2019-03-24T11:01:09.488Z,12.42
2019-03-24T11:03:42.107Z,12.94
2019-03-24T11:06:12.978Z,12.71
2019-03-24T11:08:44.098Z,10.88
2019-03-24T11:11:14.946Z,12.19
2019-03-24T11:13:46.314Z,13.09
2019-03-24T11:16:17.606Z,12.81
2019-03-24T11:18:48.492Z,11.94
2019-03-24T11:21:24.072Z,12.99
2019-03-24T11:23:54.954Z,13.17
2019-03-24T11:26:25.734Z,12.18
2019-03-24T11:28:56.513Z,12.69
2019-03-24T11:31:27.445Z,12.79
2019-03-24T11:33:58.357Z,13.37
2019-03-24T11:36:29.527Z,13.50
2019-03-24T11:39:00.839Z,12.82
2019-03-24T11:41:31.887Z,12.58
2019-03-24T11:44:02.783Z,11.91
2019-03-24T11:46:33.590Z,12.94
2019-03-24T11:49:04.385Z,11.41
2019-03-24T11:51:35.541Z,11.82
2019-03-24T11:54:06.219Z,12.03
2019-03-24T11:56:37.470Z,12.38
2019-03-24T11:59:08.363Z,12.36
2019-03-24T12:01:39.649Z,13.45
2019-03-24T12:04:10.603Z,12.58
2019-03-24T12:06:41.313Z,13.10
2019-03-24T12:09:12.175Z,13.45
2019-03-24T12:11:43.188Z,12.97
2019-03-24T12:14:14.533Z,12.84
2019-03-24T12:16:45.463Z,12.74
2019-03-24T12:19:16.252Z,13.73
2019-03-24T12:21:47.016Z,13.90
2019-03-24T12:24:17.777Z,13.63
2019-03-24T12:26:48.739Z,14.10
2019-03-24T12:29:19.502Z,14.63
2019-03-24T12:31:50.305Z,14.88
2019-03-24T12:34:21.151Z,14.78
2019-03-24T12:36:51.909Z,14.53
2019-03-24T12:39:22.821Z,14.41
2019-03-24T12:41:53.498Z,14.65
2019-03-24T12:44:24.530Z,14.38
2019-03-24T12:46:55.314Z,13.85
2019-03-24T12:49:25.992Z,14.56
2019-03-24T12:51:56.787Z,14.51
2019-03-24T12:54:27.518Z,13.98
2019-03-24T12:56:58.303Z,14.04
2019-03-24T12:59:29.012Z,13.55
2019-03-24T13:01:59.704Z,14.00
2019-03-24T13:04:31.398Z,14.72
2019-03-24T13:07:02.655Z,14.76
2019-03-24T13:09:33.755Z,13.92
2019-03-24T13:12:05.028Z,13.58
2019-03-24T13:14:36.000Z,13.61
2019-03-24T13:17:07.139Z,14.20
2019-03-24T13:19:38.333Z,14.18
2019-03-24T13:22:09.303Z,13.98
2019-03-24T13:24:40.739Z,13.93
2019-03-24T13:27:11.451Z,14.01
2019-03-24T13:29:42.230Z,14.49
2019-03-24T13:32:12.909Z,14.93
2019-03-24T13:34:43.688Z,14.95
2019-03-24T13:37:14.669Z,14.73
2019-03-24T13:39:45.369Z,14.00
2019-03-24T13:42:16.181Z,13.82
2019-03-24T13:44:47.101Z,12.98
2019-03-24T13:47:17.994Z,13.99
2019-03-24T13:49:48.932Z,13.87
2019-03-24T13:52:20.293Z,13.54
2019-03-24T13:54:52.114Z,13.33
2019-03-24T13:57:23.443Z,13.83
2019-03-24T13:59:54.308Z,14.37
2019-03-24T14:02:26.197Z,14.09
2019-03-24T14:04:57.437Z,14.36
2019-03-24T14:07:28.170Z,13.82
2019-03-24T14:09:59.043Z,14.02
2019-03-24T14:12:29.840Z,14.15
2019-03-24T14:15:00.598Z,13.49
2019-03-24T14:17:32.115Z,12.50
2019-03-24T14:20:02.950Z,12.46
2019-03-24T14:22:34.505Z,13.32
2019-03-24T14:25:05.760Z,13.34
2019-03-24T14:27:36.759Z,13.34
2019-03-24T14:30:08.911Z,12.94
2019-03-24T14:32:39.718Z,12.61
2019-03-24T14:35:11.123Z,12.61
2019-03-24T14:37:42.643Z,12.36
2019-03-24T14:40:17.280Z,12.24
2019-03-24T14:42:48.138Z,12.24
2019-03-24T14:45:19.568Z,12.31
2019-03-24T14:47:50.528Z,12.97
2019-03-24T14:50:22.061Z,12.06
2019-03-24T14:52:53.045Z,11.97
2019-03-24T14:55:23.920Z,12.22
2019-03-24T14:57:55.076Z,11.74
2019-03-24T15:00:37.261Z,12.36
2019-03-24T15:03:11.294Z,12.23
2019-03-24T15:05:42.566Z,12.19
2019-03-24T15:08:14.101Z,12.09
2019-03-24T15:10:52.466Z,11.51
2019-03-24T15:13:23.662Z,11.50
2019-03-24T15:15:54.461Z,11.54
2019-03-24T15:18:36.508Z,11.43
2019-03-24T15:21:11.510Z,11.49
2019-03-24T15:23:42.742Z,11.62
2019-03-24T15:26:13.969Z,11.37
2019-03-24T15:28:46.147Z,11.18
2019-03-24T15:31:16.995Z,11.56
2019-03-24T15:33:48.059Z,11.36
2019-03-24T15:36:19.010Z,11.62
2019-03-24T15:38:50.165Z,11.26
2019-03-24T15:41:21.136Z,11.14
2019-03-24T15:43:52.610Z,11.41
2019-03-24T15:46:26.647Z,12.32
2019-03-24T15:48:57.694Z,11.82
2019-03-24T15:51:28.512Z,11.54
2019-03-24T15:53:59.645Z,11.56
2019-03-24T15:56:30.357Z,12.07
2019-03-24T15:59:01.854Z,12.35
2019-03-24T16:01:32.714Z,11.72
2019-03-24T16:04:03.932Z,11.47
2019-03-24T16:06:35.904Z,11.62
2019-03-24T16:09:09.027Z,11.73
2019-03-24T16:11:40.508Z,11.85
2019-03-24T16:14:18.280Z,11.76
2019-03-24T16:16:49.250Z,11.41
2019-03-24T16:19:20.077Z,11.52
2019-03-24T16:21:50.890Z,12.21
2019-03-24T16:24:24.897Z,11.61
2019-03-24T16:26:55.587Z,11.67
2019-03-24T16:29:26.557Z,11.36
2019-03-24T16:31:57.483Z,11.00
2019-03-24T16:34:28.657Z,11.44
2019-03-24T16:36:59.507Z,11.30
2019-03-24T16:39:30.487Z,11.13
2019-03-24T16:42:02.286Z,11.56
2019-03-24T16:44:33.787Z,11.68
2019-03-24T16:47:04.591Z,11.68
2019-03-24T16:49:35.668Z,11.31
2019-03-24T16:52:06.950Z,11.76
2019-03-24T16:54:38.130Z,11.25
2019-03-24T16:57:08.902Z,11.59
2019-03-24T16:59:40.439Z,11.83
2019-03-24T17:02:11.536Z,11.76
2019-03-24T17:04:42.428Z,11.54
2019-03-24T17:07:13.697Z,11.20
2019-03-24T17:09:44.699Z,11.38
2019-03-24T17:12:15.477Z,11.63
2019-03-24T17:14:46.422Z,11.36
2019-03-24T17:17:17.387Z,11.64
2019-03-24T17:19:48.511Z,11.16
2019-03-24T17:22:19.540Z,11.34
2019-03-24T17:24:51.137Z,11.48
2019-03-24T17:27:22.090Z,11.29
2019-03-24T17:29:52.976Z,11.41
2019-03-24T17:32:23.892Z,11.17
2019-03-24T17:34:54.871Z,11.16
2019-03-24T17:37:25.980Z,11.63
2019-03-24T17:39:56.748Z,11.41
2019-03-24T17:42:27.749Z,11.65
2019-03-24T17:44:58.526Z,11.90
2019-03-24T17:47:29.384Z,11.71
2019-03-24T17:50:00.408Z,11.70
2019-03-24T17:52:31.252Z,11.72
2019-03-24T17:55:02.802Z,11.77
2019-03-24T17:57:33.886Z,11.84
2019-03-24T18:00:09.884Z,11.85
2019-03-24T18:02:40.681Z,11.85
2019-03-24T18:05:12.335Z,11.82
2019-03-24T18:07:44.196Z,11.79
2019-03-24T18:10:15.376Z,11.52
2019-03-24T18:12:47.013Z,11.51
2019-03-24T18:15:18.079Z,11.60
2019-03-24T18:17:48.907Z,11.76
2019-03-24T18:20:31.098Z,11.68
2019-03-24T18:23:02.249Z,11.61
2019-03-24T18:25:33.304Z,11.63
2019-03-24T18:28:04.279Z,11.68
2019-03-24T18:30:35.620Z,11.78
2019-03-24T18:33:06.751Z,11.94
2019-03-24T18:35:38.092Z,11.81
2019-03-24T18:38:09.037Z,11.74
2019-03-24T18:40:40.915Z,11.62
2019-03-24T18:43:14.957Z,11.51
2019-03-24T18:45:45.795Z,11.51
2019-03-24T18:48:16.613Z,11.41
2019-03-24T18:50:47.462Z,11.47
2019-03-24T18:53:19.288Z,11.44
2019-03-24T18:55:50.301Z,11.43
2019-03-24T18:58:21.055Z,11.40
2019-03-24T19:00:51.901Z,11.30
2019-03-24T19:03:22.777Z,11.37
2019-03-24T19:05:53.686Z,11.32
2019-03-24T19:08:24.450Z,11.25
2019-03-24T19:10:55.217Z,11.22
2019-03-24T19:13:27.995Z,11.26
2019-03-24T19:15:59.408Z,11.26
2019-03-24T19:18:30.276Z,11.25
2019-03-24T19:21:01.016Z,11.13
2019-03-24T19:23:32.449Z,11.17
2019-03-24T19:26:03.153Z,11.13
2019-03-24T19:28:35.694Z,10.91
2019-03-24T19:31:06.624Z,11.15
2019-03-24T19:33:37.636Z,11.06
2019-03-24T19:36:09.223Z,11.08
2019-03-24T19:38:41.670Z,11.10
2019-03-24T19:41:13.962Z,10.98
2019-03-24T19:43:46.560Z,10.88
2019-03-24T19:46:17.619Z,10.91
2019-03-24T19:48:49.074Z,11.01
2019-03-24T19:51:20.554Z,10.96
2019-03-24T19:53:51.401Z,10.82
2019-03-24T19:56:22.359Z,10.90
2019-03-24T19:58:53.483Z,10.66
2019-03-24T20:01:24.312Z,10.70
2019-03-24T20:03:55.323Z,10.79
2019-03-24T20:06:26.143Z,10.71
2019-03-24T20:08:57.387Z,10.56
2019-03-24T20:11:29.875Z,10.51
2019-03-24T20:14:00.721Z,10.58
2019-03-24T20:16:31.646Z,10.65
2019-03-24T20:19:02.841Z,10.54
2019-03-24T20:21:34.462Z,10.65
2019-03-24T20:24:05.415Z,10.66
2019-03-24T20:26:36.552Z,10.68
2019-03-24T20:29:07.452Z,10.45
2019-03-24T20:31:39.301Z,10.63
2019-03-24T20:34:10.195Z,10.64
2019-03-24T20:36:41.280Z,10.48
2019-03-24T20:39:12.791Z,10.35
2019-03-24T20:41:43.588Z,10.24
2019-03-24T20:44:14.464Z,10.19
2019-03-24T20:46:45.824Z,10.18
2019-03-24T20:49:16.565Z,10.19
2019-03-24T20:51:47.372Z,10.26
2019-03-24T20:54:18.192Z,10.21
2019-03-24T20:56:49.295Z,10.27
2019-03-24T20:59:20.022Z,10.17
2019-03-24T21:01:50.825Z,10.28
2019-03-24T21:04:21.828Z,10.30
2019-03-24T21:06:52.615Z,10.20
2019-03-24T21:09:23.444Z,10.24
2019-03-24T21:11:54.351Z,10.28
2019-03-24T21:14:25.415Z,10.23
2019-03-24T21:16:57.510Z,9.96
2019-03-24T21:19:28.210Z,10.08
2019-03-24T21:21:58.972Z,9.99
2019-03-24T21:24:30.256Z,10.04
2019-03-24T21:27:01.036Z,9.89
2019-03-24T21:29:32.027Z,9.84
2019-03-24T21:32:03.856Z,9.96
2019-03-24T21:34:35.009Z,9.94
2019-03-24T21:37:06.336Z,9.81
2019-03-24T21:39:37.410Z,9.68
2019-03-24T21:42:08.207Z,9.74
2019-03-24T21:44:39.488Z,9.63
2019-03-24T21:47:10.405Z,9.83
2019-03-24T21:49:41.082Z,9.94
2019-03-24T21:52:12.457Z,9.96
2019-03-24T21:54:43.317Z,9.93
2019-03-24T21:57:14.049Z,10.07
2019-03-24T21:59:44.925Z,9.94
2019-03-24T22:02:15.792Z,9.99
2019-03-24T22:04:46.866Z,9.96
2019-03-24T22:07:17.540Z,9.98
2019-03-24T22:09:48.340Z,9.83
2019-03-24T22:12:19.101Z,9.92
2019-03-24T22:14:50.446Z,9.83
2019-03-24T22:17:21.181Z,9.67
2019-03-24T22:19:51.993Z,9.62
2019-03-24T22:22:22.683Z,9.47
2019-03-24T22:24:53.895Z,9.60
2019-03-24T22:27:25.037Z,9.86
2019-03-24T22:29:55.813Z,9.89
2019-03-24T22:32:26.614Z,10.01
2019-03-24T22:34:57.782Z,10.06
2019-03-24T22:37:28.492Z,9.94
2019-03-24T22:39:59.466Z,9.87
2019-03-24T22:42:30.646Z,10.01
2019-03-24T22:45:01.426Z,10.05
2019-03-24T22:47:32.201Z,9.91
2019-03-24T22:50:03.142Z,9.92
2019-03-24T22:52:34.262Z,9.89
2019-03-24T22:55:05.917Z,9.94
2019-03-24T22:57:36.694Z,9.86
2019-03-24T23:00:15.136Z,9.79
2019-03-24T23:02:46.051Z,9.64
2019-03-24T23:05:16.824Z,9.85
2019-03-24T23:07:47.741Z,9.90
2019-03-24T23:10:19.382Z,9.68
2019-03-24T23:12:50.396Z,9.80
2019-03-24T23:15:21.113Z,9.83
2019-03-24T23:17:51.818Z,9.86
2019-03-24T23:20:22.708Z,9.97
2019-03-24T23:22:53.414Z,10.02
2019-03-24T23:25:24.127Z,9.91
2019-03-24T23:27:54.837Z,9.79
2019-03-24T23:30:25.532Z,9.89
2019-03-24T23:32:56.206Z,9.92
2019-03-24T23:35:26.932Z,9.84
2019-03-24T23:37:57.678Z,9.79
2019-03-24T23:40:28.471Z,9.54
2019-03-24T23:42:59.330Z,9.66
2019-03-24T23:45:30.546Z,9.78
2019-03-24T23:48:01.395Z,9.64
2019-03-24T23:50:32.078Z,9.52
2019-03-24T23:53:02.764Z,9.54
2019-03-24T23:55:34.425Z,8.96
2019-03-24T23:58:06.108Z,9.31
